sensor_id;sensor_type;location;lat;lon;timestamp;temperature;humidity
1415;DHT22;702;49.466;11.086;2023-07-08T00:01:17;17.60;50.20
1415;DHT22;702;49.466;11.086;2023-07-08T00:03:46;17.50;50.10
1415;DHT22;702;49.466;11.086;2023-07-08T00:06:17;17.40;50.20
1415;DHT22;702;49.466;11.086;2023-07-08T00:08:45;17.40;50.50
1415;DHT22;702;49.466;11.086;2023-07-08T00:11:13;17.40;50.40
1415;DHT22;702;49.466;11.086;2023-07-08T00:13:41;17.40;50.30
1415;DHT22;702;49.466;11.086;2023-07-08T00:16:11;17.40;50.70
1415;DHT22;702;49.466;11.086;2023-07-08T00:18:40;17.30;50.60
1415;DHT22;702;49.466;11.086;2023-07-08T00:21:10;17.40;50.40
1415;DHT22;702;49.466;11.086;2023-07-08T00:23:40;17.40;50.60
1415;DHT22;702;49.466;11.086;2023-07-08T00:26:13;17.40;50.90
1415;DHT22;702;49.466;11.086;2023-07-08T00:28:42;17.20;51.00
1415;DHT22;702;49.466;11.086;2023-07-08T00:31:11;17.10;51.20
1415;DHT22;702;49.466;11.086;2023-07-08T00:33:39;17.20;51.10
1415;DHT22;702;49.466;11.086;2023-07-08T00:36:10;17.20;51.00
1415;DHT22;702;49.466;11.086;2023-07-08T00:38:39;17.20;51.00
1415;DHT22;702;49.466;11.086;2023-07-08T00:41:13;17.30;51.00
1415;DHT22;702;49.466;11.086;2023-07-08T00:43:46;17.20;50.80
1415;DHT22;702;49.466;11.086;2023-07-08T00:46:25;17.20;50.70
1415;DHT22;702;49.466;11.086;2023-07-08T00:49:08;17.20;50.70
1415;DHT22;702;49.466;11.086;2023-07-08T00:51:41;17.30;50.50
1415;DHT22;702;49.466;11.086;2023-07-08T00:54:11;17.20;50.40
1415;DHT22;702;49.466;11.086;2023-07-08T00:56:40;17.30;50.50
1415;DHT22;702;49.466;11.086;2023-07-08T00:59:20;17.30;50.40
1415;DHT22;702;49.466;11.086;2023-07-08T01:01:51;17.20;50.30
1415;DHT22;702;49.466;11.086;2023-07-08T01:04:23;17.20;50.60
1415;DHT22;702;49.466;11.086;2023-07-08T01:06:55;17.10;50.90
1415;DHT22;702;49.466;11.086;2023-07-08T01:09:25;17.20;51.00
1415;DHT22;702;49.466;11.086;2023-07-08T01:11:55;17.10;51.10
1415;DHT22;702;49.466;11.086;2023-07-08T01:14:24;17.10;51.00
1415;DHT22;702;49.466;11.086;2023-07-08T01:16:56;17.10;51.10
1415;DHT22;702;49.466;11.086;2023-07-08T01:19:25;17.00;51.00
1415;DHT22;702;49.466;11.086;2023-07-08T01:22:00;17.00;51.00
1415;DHT22;702;49.466;11.086;2023-07-08T01:24:29;17.00;51.10
1415;DHT22;702;49.466;11.086;2023-07-08T01:27:00;17.00;51.10
1415;DHT22;702;49.466;11.086;2023-07-08T01:29:28;16.90;51.10
1415;DHT22;702;49.466;11.086;2023-07-08T01:31:56;16.90;51.30
1415;DHT22;702;49.466;11.086;2023-07-08T01:34:24;16.90;51.30
1415;DHT22;702;49.466;11.086;2023-07-08T01:36:54;16.90;51.70
1415;DHT22;702;49.466;11.086;2023-07-08T01:39:25;16.90;51.40
1415;DHT22;702;49.466;11.086;2023-07-08T01:41:56;16.90;51.30
1415;DHT22;702;49.466;11.086;2023-07-08T01:44:28;16.90;51.10
1415;DHT22;702;49.466;11.086;2023-07-08T01:46:59;16.90;51.10
1415;DHT22;702;49.466;11.086;2023-07-08T01:49:29;16.90;51.10
1415;DHT22;702;49.466;11.086;2023-07-08T01:51:57;16.90;51.10
1415;DHT22;702;49.466;11.086;2023-07-08T01:54:27;16.80;51.00
1415;DHT22;702;49.466;11.086;2023-07-08T01:56:55;16.90;50.70
1415;DHT22;702;49.466;11.086;2023-07-08T01:59:23;17.00;50.70
1415;DHT22;702;49.466;11.086;2023-07-08T02:01:51;17.00;50.70
1415;DHT22;702;49.466;11.086;2023-07-08T02:04:20;17.00;50.90
1415;DHT22;702;49.466;11.086;2023-07-08T02:06:51;16.90;51.00
1415;DHT22;702;49.466;11.086;2023-07-08T02:09:19;16.90;51.00
1415;DHT22;702;49.466;11.086;2023-07-08T02:11:47;16.90;51.10
1415;DHT22;702;49.466;11.086;2023-07-08T02:14:15;16.80;51.20
1415;DHT22;702;49.466;11.086;2023-07-08T02:16:42;16.80;51.30
1415;DHT22;702;49.466;11.086;2023-07-08T02:19:10;16.80;51.20
1415;DHT22;702;49.466;11.086;2023-07-08T02:21:38;16.80;51.20
1415;DHT22;702;49.466;11.086;2023-07-08T02:24:06;16.80;51.40
1415;DHT22;702;49.466;11.086;2023-07-08T02:26:34;16.80;51.40
1415;DHT22;702;49.466;11.086;2023-07-08T02:29:03;16.70;51.50
1415;DHT22;702;49.466;11.086;2023-07-08T02:31:30;16.70;51.50
1415;DHT22;702;49.466;11.086;2023-07-08T02:33:57;16.70;51.80
1415;DHT22;702;49.466;11.086;2023-07-08T02:36:25;16.70;52.00
1415;DHT22;702;49.466;11.086;2023-07-08T02:38:52;16.60;52.10
1415;DHT22;702;49.466;11.086;2023-07-08T02:41:19;16.60;52.20
1415;DHT22;702;49.466;11.086;2023-07-08T02:43:47;16.50;52.30
1415;DHT22;702;49.466;11.086;2023-07-08T02:46:16;16.50;52.50
1415;DHT22;702;49.466;11.086;2023-07-08T02:48:43;16.40;52.60
1415;DHT22;702;49.466;11.086;2023-07-08T02:51:10;16.40;52.50
1415;DHT22;702;49.466;11.086;2023-07-08T02:53:38;16.40;52.80
1415;DHT22;702;49.466;11.086;2023-07-08T02:56:05;16.30;52.70
1415;DHT22;702;49.466;11.086;2023-07-08T02:58:32;16.30;53.00
1415;DHT22;702;49.466;11.086;2023-07-08T03:01:00;16.20;53.20
1415;DHT22;702;49.466;11.086;2023-07-08T03:03:29;16.10;53.80
1415;DHT22;702;49.466;11.086;2023-07-08T03:05:57;16.00;53.70
1415;DHT22;702;49.466;11.086;2023-07-08T03:08:25;16.10;53.60
1415;DHT22;702;49.466;11.086;2023-07-08T03:10:55;16.10;53.60
1415;DHT22;702;49.466;11.086;2023-07-08T03:13:24;16.00;53.90
1415;DHT22;702;49.466;11.086;2023-07-08T03:15:52;15.90;54.20
1415;DHT22;702;49.466;11.086;2023-07-08T03:18:20;15.90;54.50
1415;DHT22;702;49.466;11.086;2023-07-08T03:20:50;15.80;54.80
1415;DHT22;702;49.466;11.086;2023-07-08T03:23:19;15.80;55.10
1415;DHT22;702;49.466;11.086;2023-07-08T03:25:46;15.70;55.20
1415;DHT22;702;49.466;11.086;2023-07-08T03:28:14;15.70;55.30
1415;DHT22;702;49.466;11.086;2023-07-08T03:30:42;15.70;55.70
1415;DHT22;702;49.466;11.086;2023-07-08T03:33:10;15.70;56.20
1415;DHT22;702;49.466;11.086;2023-07-08T03:35:38;15.60;56.40
1415;DHT22;702;49.466;11.086;2023-07-08T03:38:07;15.60;56.10
1415;DHT22;702;49.466;11.086;2023-07-08T03:40:34;15.60;56.20
1415;DHT22;702;49.466;11.086;2023-07-08T03:43:02;15.60;56.30
1415;DHT22;702;49.466;11.086;2023-07-08T03:45:29;15.70;56.80
1415;DHT22;702;49.466;11.086;2023-07-08T03:47:56;15.60;56.80
1415;DHT22;702;49.466;11.086;2023-07-08T03:50:25;15.70;57.10
1415;DHT22;702;49.466;11.086;2023-07-08T03:52:54;15.70;56.90
1415;DHT22;702;49.466;11.086;2023-07-08T03:55:23;15.70;57.00
1415;DHT22;702;49.466;11.086;2023-07-08T03:57:50;15.70;56.90
1415;DHT22;702;49.466;11.086;2023-07-08T04:00:18;15.70;56.90
1415;DHT22;702;49.466;11.086;2023-07-08T04:02:47;15.80;57.30
1415;DHT22;702;49.466;11.086;2023-07-08T04:05:15;15.90;57.60
1415;DHT22;702;49.466;11.086;2023-07-08T04:07:45;16.10;57.50
1415;DHT22;702;49.466;11.086;2023-07-08T04:10:13;16.40;57.00
1415;DHT22;702;49.466;11.086;2023-07-08T04:12:42;16.90;57.00
1415;DHT22;702;49.466;11.086;2023-07-08T04:15:11;17.80;55.60
1415;DHT22;702;49.466;11.086;2023-07-08T04:17:42;18.80;53.90
1415;DHT22;702;49.466;11.086;2023-07-08T04:20:14;19.60;53.40
1415;DHT22;702;49.466;11.086;2023-07-08T04:22:43;20.50;52.50
1415;DHT22;702;49.466;11.086;2023-07-08T04:25:12;21.60;51.50
1415;DHT22;702;49.466;11.086;2023-07-08T04:27:42;22.40;50.20
1415;DHT22;702;49.466;11.086;2023-07-08T04:30:20;23.00;49.00
1415;DHT22;702;49.466;11.086;2023-07-08T04:32:50;23.40;49.00
1415;DHT22;702;49.466;11.086;2023-07-08T04:35:18;23.70;48.10
1415;DHT22;702;49.466;11.086;2023-07-08T04:37:45;23.70;47.80
1415;DHT22;702;49.466;11.086;2023-07-08T04:40:17;23.90;48.20
1415;DHT22;702;49.466;11.086;2023-07-08T04:42:48;24.40;47.80
1415;DHT22;702;49.466;11.086;2023-07-08T04:45:16;25.10;47.20
1415;DHT22;702;49.466;11.086;2023-07-08T04:47:44;25.20;47.30
1415;DHT22;702;49.466;11.086;2023-07-08T04:50:13;25.60;47.00
1415;DHT22;702;49.466;11.086;2023-07-08T04:52:40;25.40;46.40
1415;DHT22;702;49.466;11.086;2023-07-08T04:55:08;25.40;46.70
1415;DHT22;702;49.466;11.086;2023-07-08T04:57:36;25.60;46.60
1415;DHT22;702;49.466;11.086;2023-07-08T05:00:06;26.00;46.30
1415;DHT22;702;49.466;11.086;2023-07-08T05:02:35;26.80;46.10
1415;DHT22;702;49.466;11.086;2023-07-08T05:05:03;26.90;45.70
1415;DHT22;702;49.466;11.086;2023-07-08T05:07:31;27.40;45.60
1415;DHT22;702;49.466;11.086;2023-07-08T05:09:58;27.80;45.10
1415;DHT22;702;49.466;11.086;2023-07-08T05:12:26;27.50;45.00
1415;DHT22;702;49.466;11.086;2023-07-08T05:14:53;27.70;44.70
1415;DHT22;702;49.466;11.086;2023-07-08T05:17:22;28.10;45.00
1415;DHT22;702;49.466;11.086;2023-07-08T05:19:51;28.40;44.20
1415;DHT22;702;49.466;11.086;2023-07-08T05:22:19;28.20;43.90
1415;DHT22;702;49.466;11.086;2023-07-08T05:24:51;28.00;44.30
1415;DHT22;702;49.466;11.086;2023-07-08T05:27:21;28.00;44.10
1415;DHT22;702;49.466;11.086;2023-07-08T05:29:48;27.10;44.60
1415;DHT22;702;49.466;11.086;2023-07-08T05:32:17;26.70;45.10
1415;DHT22;702;49.466;11.086;2023-07-08T05:34:46;26.60;44.60
1415;DHT22;702;49.466;11.086;2023-07-08T05:37:13;26.30;44.70
1415;DHT22;702;49.466;11.086;2023-07-08T05:39:41;26.10;45.30
1415;DHT22;702;49.466;11.086;2023-07-08T05:42:08;26.10;44.80
1415;DHT22;702;49.466;11.086;2023-07-08T05:44:35;26.30;44.90
1415;DHT22;702;49.466;11.086;2023-07-08T05:47:03;26.50;44.70
1415;DHT22;702;49.466;11.086;2023-07-08T05:49:32;26.40;45.00
1415;DHT22;702;49.466;11.086;2023-07-08T05:52:00;26.80;45.00
1415;DHT22;702;49.466;11.086;2023-07-08T05:54:32;26.90;44.60
1415;DHT22;702;49.466;11.086;2023-07-08T05:56:59;27.10;44.40
1415;DHT22;702;49.466;11.086;2023-07-08T05:59:26;27.10;44.70
1415;DHT22;702;49.466;11.086;2023-07-08T06:01:53;27.10;45.00
1415;DHT22;702;49.466;11.086;2023-07-08T06:04:21;27.10;44.80
1415;DHT22;702;49.466;11.086;2023-07-08T06:06:48;27.20;44.70
1415;DHT22;702;49.466;11.086;2023-07-08T06:09:18;27.20;44.70
1415;DHT22;702;49.466;11.086;2023-07-08T06:11:45;27.30;44.80
1415;DHT22;702;49.466;11.086;2023-07-08T06:14:12;27.90;44.60
1415;DHT22;702;49.466;11.086;2023-07-08T06:16:40;27.60;44.40
1415;DHT22;702;49.466;11.086;2023-07-08T06:19:07;27.10;44.80
1415;DHT22;702;49.466;11.086;2023-07-08T06:21:35;27.30;44.90
1415;DHT22;702;49.466;11.086;2023-07-08T06:24:02;27.90;44.90
1415;DHT22;702;49.466;11.086;2023-07-08T06:26:31;28.00;44.60
1415;DHT22;702;49.466;11.086;2023-07-08T06:28:58;27.90;44.80
1415;DHT22;702;49.466;11.086;2023-07-08T06:31:26;27.30;45.20
1415;DHT22;702;49.466;11.086;2023-07-08T06:33:54;26.80;45.20
1415;DHT22;702;49.466;11.086;2023-07-08T06:36:23;26.20;45.60
1415;DHT22;702;49.466;11.086;2023-07-08T06:38:50;25.30;46.60
1415;DHT22;702;49.466;11.086;2023-07-08T06:41:17;24.50;47.70
1415;DHT22;702;49.466;11.086;2023-07-08T06:43:46;24.00;47.50
1415;DHT22;702;49.466;11.086;2023-07-08T06:46:13;23.80;48.10
1415;DHT22;702;49.466;11.086;2023-07-08T06:48:41;23.60;48.30
1415;DHT22;702;49.466;11.086;2023-07-08T06:51:08;23.60;48.60
1415;DHT22;702;49.466;11.086;2023-07-08T06:53:35;23.60;48.50
1415;DHT22;702;49.466;11.086;2023-07-08T06:56:03;23.60;48.70
1415;DHT22;702;49.466;11.086;2023-07-08T06:58:30;23.70;48.80
1415;DHT22;702;49.466;11.086;2023-07-08T07:01:00;23.90;48.80
1415;DHT22;702;49.466;11.086;2023-07-08T07:03:28;24.00;48.50
1415;DHT22;702;49.466;11.086;2023-07-08T07:05:55;24.00;48.90
1415;DHT22;702;49.466;11.086;2023-07-08T07:08:22;24.10;49.00
1415;DHT22;702;49.466;11.086;2023-07-08T07:10:50;24.40;48.80
1415;DHT22;702;49.466;11.086;2023-07-08T07:13:17;24.60;48.70
1415;DHT22;702;49.466;11.086;2023-07-08T07:15:44;24.60;48.40
1415;DHT22;702;49.466;11.086;2023-07-08T07:18:13;24.60;48.40
1415;DHT22;702;49.466;11.086;2023-07-08T07:20:48;24.60;48.20
1415;DHT22;702;49.466;11.086;2023-07-08T07:23:16;24.60;48.30
1415;DHT22;702;49.466;11.086;2023-07-08T07:25:44;24.80;47.90
1415;DHT22;702;49.466;11.086;2023-07-08T07:28:13;25.00;48.20
1415;DHT22;702;49.466;11.086;2023-07-08T07:30:42;25.20;48.50
1415;DHT22;702;49.466;11.086;2023-07-08T07:33:09;25.40;48.00
1415;DHT22;702;49.466;11.086;2023-07-08T07:35:43;25.60;47.60
1415;DHT22;702;49.466;11.086;2023-07-08T07:38:10;25.70;47.50
1415;DHT22;702;49.466;11.086;2023-07-08T07:40:39;25.90;47.40
1415;DHT22;702;49.466;11.086;2023-07-08T07:43:07;25.90;46.80
1415;DHT22;702;49.466;11.086;2023-07-08T07:45:34;25.80;47.00
1415;DHT22;702;49.466;11.086;2023-07-08T07:48:02;25.80;47.20
1415;DHT22;702;49.466;11.086;2023-07-08T07:50:30;25.80;46.80
1415;DHT22;702;49.466;11.086;2023-07-08T07:52:59;25.80;46.80
1415;DHT22;702;49.466;11.086;2023-07-08T07:55:27;26.00;47.00
1415;DHT22;702;49.466;11.086;2023-07-08T07:57:54;26.20;46.90
1415;DHT22;702;49.466;11.086;2023-07-08T08:00:21;26.40;46.90
1415;DHT22;702;49.466;11.086;2023-07-08T08:02:48;26.60;46.50
1415;DHT22;702;49.466;11.086;2023-07-08T08:05:15;26.60;46.40
1415;DHT22;702;49.466;11.086;2023-07-08T08:07:43;26.70;46.60
1415;DHT22;702;49.466;11.086;2023-07-08T08:10:12;26.80;46.00
1415;DHT22;702;49.466;11.086;2023-07-08T08:12:40;27.00;46.10
1415;DHT22;702;49.466;11.086;2023-07-08T08:15:07;27.10;45.50
1415;DHT22;702;49.466;11.086;2023-07-08T08:17:35;27.00;45.20
1415;DHT22;702;49.466;11.086;2023-07-08T08:20:03;27.30;45.50
1415;DHT22;702;49.466;11.086;2023-07-08T08:22:31;27.40;44.70
1415;DHT22;702;49.466;11.086;2023-07-08T08:24:59;27.30;44.40
1415;DHT22;702;49.466;11.086;2023-07-08T08:27:29;27.30;44.20
1415;DHT22;702;49.466;11.086;2023-07-08T08:29:56;27.40;44.50
1415;DHT22;702;49.466;11.086;2023-07-08T08:32:23;27.50;44.60
1415;DHT22;702;49.466;11.086;2023-07-08T08:34:50;27.70;44.40
1415;DHT22;702;49.466;11.086;2023-07-08T08:37:17;27.80;43.80
1415;DHT22;702;49.466;11.086;2023-07-08T08:39:46;27.60;43.30
1415;DHT22;702;49.466;11.086;2023-07-08T08:42:19;27.60;43.60
1415;DHT22;702;49.466;11.086;2023-07-08T08:44:52;27.80;43.40
1415;DHT22;702;49.466;11.086;2023-07-08T08:47:32;27.80;42.70
1415;DHT22;702;49.466;11.086;2023-07-08T08:50:08;27.90;42.20
1415;DHT22;702;49.466;11.086;2023-07-08T08:52:45;27.80;41.80
1415;DHT22;702;49.466;11.086;2023-07-08T08:55:14;28.00;41.70
1415;DHT22;702;49.466;11.086;2023-07-08T08:57:45;28.10;41.30
1415;DHT22;702;49.466;11.086;2023-07-08T09:00:25;28.00;40.80
1415;DHT22;702;49.466;11.086;2023-07-08T09:03:01;28.10;40.50
1415;DHT22;702;49.466;11.086;2023-07-08T09:05:30;28.20;40.00
1415;DHT22;702;49.466;11.086;2023-07-08T09:08:03;28.40;40.20
1415;DHT22;702;49.466;11.086;2023-07-08T09:10:42;28.40;39.80
1415;DHT22;702;49.466;11.086;2023-07-08T09:13:17;28.50;39.50
1415;DHT22;702;49.466;11.086;2023-07-08T09:15:57;28.50;39.90
1415;DHT22;702;49.466;11.086;2023-07-08T09:18:31;28.40;39.90
1415;DHT22;702;49.466;11.086;2023-07-08T09:21:07;28.40;39.80
1415;DHT22;702;49.466;11.086;2023-07-08T09:23:44;28.30;39.50
1415;DHT22;702;49.466;11.086;2023-07-08T09:26:22;28.40;39.20
1415;DHT22;702;49.466;11.086;2023-07-08T09:28:51;28.50;38.90
1415;DHT22;702;49.466;11.086;2023-07-08T09:31:23;28.80;38.90
1415;DHT22;702;49.466;11.086;2023-07-08T09:33:53;28.80;39.20
1415;DHT22;702;49.466;11.086;2023-07-08T09:36:24;28.90;38.70
1415;DHT22;702;49.466;11.086;2023-07-08T09:38:53;29.00;38.20
1415;DHT22;702;49.466;11.086;2023-07-08T09:41:38;29.20;38.20
1415;DHT22;702;49.466;11.086;2023-07-08T09:44:14;29.10;37.40
1415;DHT22;702;49.466;11.086;2023-07-08T09:46:45;28.90;37.20
1415;DHT22;702;49.466;11.086;2023-07-08T09:49:21;29.00;37.10
1415;DHT22;702;49.466;11.086;2023-07-08T09:51:51;29.30;37.10
1415;DHT22;702;49.466;11.086;2023-07-08T09:54:20;29.30;37.70
1415;DHT22;702;49.466;11.086;2023-07-08T09:56:58;29.50;37.50
1415;DHT22;702;49.466;11.086;2023-07-08T09:59:32;29.60;38.00
1415;DHT22;702;49.466;11.086;2023-07-08T10:02:25;29.50;37.30
1415;DHT22;702;49.466;11.086;2023-07-08T10:04:57;29.60;37.00
1415;DHT22;702;49.466;11.086;2023-07-08T10:07:29;29.60;37.50
1415;DHT22;702;49.466;11.086;2023-07-08T10:09:59;29.50;37.80
1415;DHT22;702;49.466;11.086;2023-07-08T10:12:30;29.10;37.90
1415;DHT22;702;49.466;11.086;2023-07-08T10:15:05;29.10;37.90
1415;DHT22;702;49.466;11.086;2023-07-08T10:17:41;29.30;37.60
1415;DHT22;702;49.466;11.086;2023-07-08T10:20:11;29.50;37.50
1415;DHT22;702;49.466;11.086;2023-07-08T10:22:45;29.40;36.90
1415;DHT22;702;49.466;11.086;2023-07-08T10:25:36;29.60;37.40
1415;DHT22;702;49.466;11.086;2023-07-08T10:28:21;29.80;37.50
1415;DHT22;702;49.466;11.086;2023-07-08T10:31:02;29.70;37.40
1415;DHT22;702;49.466;11.086;2023-07-08T10:34:01;29.50;37.70
1415;DHT22;702;49.466;11.086;2023-07-08T10:36:43;29.80;38.00
1415;DHT22;702;49.466;11.086;2023-07-08T10:39:27;29.90;37.60
1415;DHT22;702;49.466;11.086;2023-07-08T10:42:07;30.10;37.60
1415;DHT22;702;49.466;11.086;2023-07-08T10:44:45;30.10;37.40
1415;DHT22;702;49.466;11.086;2023-07-08T10:47:30;29.80;37.20
1415;DHT22;702;49.466;11.086;2023-07-08T10:50:26;29.90;37.20
1415;DHT22;702;49.466;11.086;2023-07-08T10:53:06;29.80;36.70
1415;DHT22;702;49.466;11.086;2023-07-08T10:55:49;29.80;37.20
1415;DHT22;702;49.466;11.086;2023-07-08T10:58:33;29.70;37.10
1415;DHT22;702;49.466;11.086;2023-07-08T11:01:10;29.90;37.50
1415;DHT22;702;49.466;11.086;2023-07-08T11:03:56;30.10;37.70
1415;DHT22;702;49.466;11.086;2023-07-08T11:06:40;30.30;37.40
1415;DHT22;702;49.466;11.086;2023-07-08T11:09:15;30.30;37.00
1415;DHT22;702;49.466;11.086;2023-07-08T11:11:50;30.40;36.90
1415;DHT22;702;49.466;11.086;2023-07-08T11:14:23;30.20;36.70
1415;DHT22;702;49.466;11.086;2023-07-08T11:16:57;30.10;36.50
1415;DHT22;702;49.466;11.086;2023-07-08T11:19:37;29.90;36.90
1415;DHT22;702;49.466;11.086;2023-07-08T11:22:11;30.00;36.80
1415;DHT22;702;49.466;11.086;2023-07-08T11:24:44;29.80;36.80
1415;DHT22;702;49.466;11.086;2023-07-08T11:27:16;30.00;36.70
1415;DHT22;702;49.466;11.086;2023-07-08T11:29:53;30.10;37.10
1415;DHT22;702;49.466;11.086;2023-07-08T11:32:25;30.30;37.30
1415;DHT22;702;49.466;11.086;2023-07-08T11:34:53;30.40;37.20
1415;DHT22;702;49.466;11.086;2023-07-08T11:37:23;30.60;37.30
1415;DHT22;702;49.466;11.086;2023-07-08T11:39:58;30.70;37.30
1415;DHT22;702;49.466;11.086;2023-07-08T11:42:35;30.90;36.90
1415;DHT22;702;49.466;11.086;2023-07-08T11:45:11;31.00;36.80
1415;DHT22;702;49.466;11.086;2023-07-08T11:47:50;31.10;37.30
1415;DHT22;702;49.466;11.086;2023-07-08T11:50:20;31.00;37.50
1415;DHT22;702;49.466;11.086;2023-07-08T11:52:58;31.10;38.00
1415;DHT22;702;49.466;11.086;2023-07-08T11:55:35;31.10;37.50
1415;DHT22;702;49.466;11.086;2023-07-08T11:58:07;31.00;37.60
1415;DHT22;702;49.466;11.086;2023-07-08T12:00:34;31.00;37.40
1415;DHT22;702;49.466;11.086;2023-07-08T12:03:19;30.80;37.70
1415;DHT22;702;49.466;11.086;2023-07-08T12:05:46;30.80;37.50
1415;DHT22;702;49.466;11.086;2023-07-08T12:08:18;30.60;37.60
1415;DHT22;702;49.466;11.086;2023-07-08T12:10:48;30.60;37.80
1415;DHT22;702;49.466;11.086;2023-07-08T12:13:18;30.80;37.80
1415;DHT22;702;49.466;11.086;2023-07-08T12:15:48;30.80;37.00
1415;DHT22;702;49.466;11.086;2023-07-08T12:18:19;30.90;37.60
1415;DHT22;702;49.466;11.086;2023-07-08T12:20:52;31.00;37.70
1415;DHT22;702;49.466;11.086;2023-07-08T12:23:23;31.20;37.60
1415;DHT22;702;49.466;11.086;2023-07-08T12:25:52;31.10;37.40
1415;DHT22;702;49.466;11.086;2023-07-08T12:28:21;31.10;37.60
1415;DHT22;702;49.466;11.086;2023-07-08T12:30:49;31.30;37.50
1415;DHT22;702;49.466;11.086;2023-07-08T12:33:28;31.10;37.60
1415;DHT22;702;49.466;11.086;2023-07-08T12:35:56;31.20;37.70
1415;DHT22;702;49.466;11.086;2023-07-08T12:38:28;31.50;37.70
1415;DHT22;702;49.466;11.086;2023-07-08T12:40:59;31.50;37.50
1415;DHT22;702;49.466;11.086;2023-07-08T12:43:27;31.20;37.50
1415;DHT22;702;49.466;11.086;2023-07-08T12:45:55;31.30;37.50
1415;DHT22;702;49.466;11.086;2023-07-08T12:48:22;31.50;37.40
1415;DHT22;702;49.466;11.086;2023-07-08T12:50:49;31.70;37.50
1415;DHT22;702;49.466;11.086;2023-07-08T12:53:16;31.10;37.40
1415;DHT22;702;49.466;11.086;2023-07-08T12:55:48;31.10;37.30
1415;DHT22;702;49.466;11.086;2023-07-08T12:58:22;31.20;37.00
1415;DHT22;702;49.466;11.086;2023-07-08T13:00:53;31.00;36.90
1415;DHT22;702;49.466;11.086;2023-07-08T13:03:23;30.70;37.00
1415;DHT22;702;49.466;11.086;2023-07-08T13:05:55;30.70;36.70
1415;DHT22;702;49.466;11.086;2023-07-08T13:08:24;30.80;37.00
1415;DHT22;702;49.466;11.086;2023-07-08T13:10:57;30.80;37.00
1415;DHT22;702;49.466;11.086;2023-07-08T13:13:28;30.90;36.70
1415;DHT22;702;49.466;11.086;2023-07-08T13:15:58;31.20;37.10
1415;DHT22;702;49.466;11.086;2023-07-08T13:18:33;31.20;37.00
1415;DHT22;702;49.466;11.086;2023-07-08T13:21:03;31.40;37.10
1415;DHT22;702;49.466;11.086;2023-07-08T13:23:32;31.20;37.10
1415;DHT22;702;49.466;11.086;2023-07-08T13:26:13;31.20;37.30
1415;DHT22;702;49.466;11.086;2023-07-08T13:28:41;31.10;37.10
1415;DHT22;702;49.466;11.086;2023-07-08T13:31:15;30.80;37.00
1415;DHT22;702;49.466;11.086;2023-07-08T13:33:48;30.70;37.10
1415;DHT22;702;49.466;11.086;2023-07-08T13:36:18;31.00;37.40
1415;DHT22;702;49.466;11.086;2023-07-08T13:38:49;31.20;37.00
1415;DHT22;702;49.466;11.086;2023-07-08T13:41:20;31.40;37.20
1415;DHT22;702;49.466;11.086;2023-07-08T13:43:50;31.30;37.00
1415;DHT22;702;49.466;11.086;2023-07-08T13:46:29;31.60;37.00
1415;DHT22;702;49.466;11.086;2023-07-08T13:49:00;31.40;36.80
1415;DHT22;702;49.466;11.086;2023-07-08T13:51:31;31.40;37.00
1415;DHT22;702;49.466;11.086;2023-07-08T13:54:00;31.60;36.60
1415;DHT22;702;49.466;11.086;2023-07-08T13:56:36;31.70;36.90
1415;DHT22;702;49.466;11.086;2023-07-08T13:59:05;31.80;36.70
1415;DHT22;702;49.466;11.086;2023-07-08T14:01:37;31.90;37.20
1415;DHT22;702;49.466;11.086;2023-07-08T14:04:06;32.00;36.60
1415;DHT22;702;49.466;11.086;2023-07-08T14:06:35;31.80;36.60
1415;DHT22;702;49.466;11.086;2023-07-08T14:09:13;31.60;36.40
1415;DHT22;702;49.466;11.086;2023-07-08T14:11:44;31.60;36.30
1415;DHT22;702;49.466;11.086;2023-07-08T14:14:15;31.70;36.70
1415;DHT22;702;49.466;11.086;2023-07-08T14:16:44;31.30;36.60
1415;DHT22;702;49.466;11.086;2023-07-08T14:19:15;31.30;36.70
1415;DHT22;702;49.466;11.086;2023-07-08T14:21:44;31.30;36.60
1415;DHT22;702;49.466;11.086;2023-07-08T14:24:13;31.50;36.80
1415;DHT22;702;49.466;11.086;2023-07-08T14:26:44;31.70;36.70
1415;DHT22;702;49.466;11.086;2023-07-08T14:29:12;31.80;36.70
1415;DHT22;702;49.466;11.086;2023-07-08T14:31:39;31.80;36.50
1415;DHT22;702;49.466;11.086;2023-07-08T14:34:09;31.70;36.30
1415;DHT22;702;49.466;11.086;2023-07-08T14:36:38;31.50;36.50
1415;DHT22;702;49.466;11.086;2023-07-08T14:39:12;31.40;36.50
1415;DHT22;702;49.466;11.086;2023-07-08T14:41:43;31.20;36.70
1415;DHT22;702;49.466;11.086;2023-07-08T14:44:21;31.20;36.60
1415;DHT22;702;49.466;11.086;2023-07-08T14:46:49;31.40;36.70
1415;DHT22;702;49.466;11.086;2023-07-08T14:49:18;31.40;36.50
1415;DHT22;702;49.466;11.086;2023-07-08T14:51:46;31.60;36.90
1415;DHT22;702;49.466;11.086;2023-07-08T14:54:14;31.70;36.30
1415;DHT22;702;49.466;11.086;2023-07-08T14:56:43;31.80;36.30
1415;DHT22;702;49.466;11.086;2023-07-08T14:59:14;31.80;36.50
1415;DHT22;702;49.466;11.086;2023-07-08T15:01:43;32.00;36.60
1415;DHT22;702;49.466;11.086;2023-07-08T15:04:12;31.90;36.50
1415;DHT22;702;49.466;11.086;2023-07-08T15:06:41;31.70;36.70
1415;DHT22;702;49.466;11.086;2023-07-08T15:09:09;32.00;36.60
1415;DHT22;702;49.466;11.086;2023-07-08T15:11:36;32.20;36.50
1415;DHT22;702;49.466;11.086;2023-07-08T15:14:11;32.40;36.60
1415;DHT22;702;49.466;11.086;2023-07-08T15:16:43;32.40;36.80
1415;DHT22;702;49.466;11.086;2023-07-08T15:19:12;32.40;36.50
1415;DHT22;702;49.466;11.086;2023-07-08T15:21:40;32.30;36.30
1415;DHT22;702;49.466;11.086;2023-07-08T15:24:10;32.40;36.40
1415;DHT22;702;49.466;11.086;2023-07-08T15:26:38;32.30;36.20
1415;DHT22;702;49.466;11.086;2023-07-08T15:29:12;32.00;36.30
1415;DHT22;702;49.466;11.086;2023-07-08T15:31:41;32.20;36.50
1415;DHT22;702;49.466;11.086;2023-07-08T15:34:11;32.40;36.30
1415;DHT22;702;49.466;11.086;2023-07-08T15:36:40;32.50;36.20
1415;DHT22;702;49.466;11.086;2023-07-08T15:39:08;32.50;36.50
1415;DHT22;702;49.466;11.086;2023-07-08T15:41:35;32.70;36.40
1415;DHT22;702;49.466;11.086;2023-07-08T15:44:04;32.80;36.30
1415;DHT22;702;49.466;11.086;2023-07-08T15:46:39;32.90;36.00
1415;DHT22;702;49.466;11.086;2023-07-08T15:49:14;32.90;36.30
1415;DHT22;702;49.466;11.086;2023-07-08T15:51:42;32.60;36.20
1415;DHT22;702;49.466;11.086;2023-07-08T15:54:10;32.80;36.70
1415;DHT22;702;49.466;11.086;2023-07-08T15:59:10;33.00;36.40
1415;DHT22;702;49.466;11.086;2023-07-08T16:01:41;33.10;36.10
1415;DHT22;702;49.466;11.086;2023-07-08T16:04:18;33.50;36.00
1415;DHT22;702;49.466;11.086;2023-07-08T16:06:49;34.00;36.00
1415;DHT22;702;49.466;11.086;2023-07-08T16:09:16;34.40;35.90
1415;DHT22;702;49.466;11.086;2023-07-08T16:11:44;34.50;36.10
1415;DHT22;702;49.466;11.086;2023-07-08T16:14:14;35.00;35.90
1415;DHT22;702;49.466;11.086;2023-07-08T16:16:42;35.80;35.90
1415;DHT22;702;49.466;11.086;2023-07-08T16:19:11;36.30;35.40
1415;DHT22;702;49.466;11.086;2023-07-08T16:21:39;36.30;35.60
1415;DHT22;702;49.466;11.086;2023-07-08T16:24:07;36.50;35.40
1415;DHT22;702;49.466;11.086;2023-07-08T16:26:35;37.20;35.50